Time;durP1;ratioP1;P1;durP2;ratioP2;P2;SDS_P1;SDS_P2;PMS_P1;PMS_P2;Temp;Humidity;BMP_temperature;BMP_pressure;BME280_temperature;BME280_humidity;BME280_pressure;Samples;Min_cycle;Max_cycle;Signal;HPM_P1;HPM_P2
2024/02/14 00:02:12;;;;;;;16.38;9.82;;;4.30;1.00;;;;;;7369717;19;20014;-73
2024/02/14 00:04:42;;;;;;;15.98;8.98;;;4.20;1.00;;;;;;7370982;19;20572;-72
2024/02/14 00:07:12;;;;;;;15.40;9.43;;;4.10;1.00;;;;;;7368598;19;20014;-72
2024/02/14 00:09:42;;;;;;;18.33;9.23;;;4.20;1.00;;;;;;7369143;19;20006;-72
2024/02/14 00:12:12;;;;;;;14.70;9.27;;;4.10;1.00;;;;;;7370204;19;20025;-69
2024/02/14 00:14:42;;;;;;;16.65;8.98;;;4.10;1.00;;;;;;7370296;19;20826;-71
2024/02/14 00:17:15;;;;;;;12.05;8.77;;;4.10;1.00;;;;;;7367340;19;20006;-71
2024/02/14 00:19:45;;;;;;;17.50;9.63;;;4.00;1.00;;;;;;7368441;19;20083;-72
2024/02/14 00:22:16;;;;;;;23.08;11.05;;;4.00;1.00;;;;;;7367868;19;20594;-71
2024/02/14 00:24:46;;;;;;;14.80;9.73;;;4.10;1.00;;;;;;7368873;19;20106;-73
2024/02/14 00:27:17;;;;;;;18.13;9.85;;;4.20;1.00;;;;;;7369715;19;20100;-72
2024/02/14 00:29:48;;;;;;;13.45;9.18;;;4.20;1.00;;;;;;7368279;19;20294;-71
2024/02/14 00:32:20;;;;;;;21.60;9.48;;;4.20;1.00;;;;;;7367940;19;20031;-71
2024/02/14 00:34:55;;;;;;;15.13;8.85;;;4.20;1.00;;;;;;7369101;19;20010;-71
2024/02/14 00:37:25;;;;;;;17.50;9.82;;;4.20;1.00;;;;;;7369776;19;20010;-71
2024/02/14 00:39:57;;;;;;;13.75;8.52;;;4.30;1.00;;;;;;7367944;19;20086;-71
2024/02/14 00:42:28;;;;;;;13.23;8.65;;;4.40;1.00;;;;;;7368274;19;20111;-71
2024/02/14 00:44:58;;;;;;;13.20;8.13;;;4.30;1.00;;;;;;7368741;19;20117;-70
2024/02/14 00:47:30;;;;;;;14.98;8.73;;;4.30;1.00;;;;;;7367793;19;20007;-71
2024/02/14 00:50:00;;;;;;;14.43;8.50;;;4.40;1.00;;;;;;7368197;19;20010;-72
2024/02/14 00:52:31;;;;;;;14.90;9.02;;;4.40;1.00;;;;;;7366894;19;20082;-71
2024/02/14 00:55:03;;;;;;;17.52;9.25;;;4.50;1.00;;;;;;7369165;19;20018;-71
2024/02/14 00:57:34;;;;;;;11.77;7.85;;;4.50;1.00;;;;;;7368514;19;20296;-71
2024/02/14 01:00:06;;;;;;;13.30;8.30;;;4.60;1.00;;;;;;7367618;19;20018;-72
2024/02/14 01:02:39;;;;;;;12.73;8.25;;;4.70;1.00;;;;;;7368290;19;20023;-71
2024/02/14 01:05:09;;;;;;;14.07;8.50;;;4.70;1.00;;;;;;7367406;19;20010;-70
2024/02/14 01:07:40;;;;;;;12.68;7.53;;;4.70;1.00;;;;;;7367649;19;20028;-70
2024/02/14 01:10:10;;;;;;;17.13;7.57;;;4.70;1.00;;;;;;7367741;19;20481;-70
2024/02/14 01:12:40;;;;;;;14.60;7.45;;;4.80;1.00;;;;;;7373057;19;20071;-72
2024/02/14 01:15:11;;;;;;;10.80;6.68;;;4.80;1.00;;;;;;7373851;19;20085;-71
2024/02/14 01:17:47;;;;;;;9.93;6.63;;;4.90;1.00;;;;;;7374739;19;20527;-70
2024/02/14 01:20:18;;;;;;;8.73;5.75;;;4.90;1.00;;;;;;7372501;19;20027;-72
2024/02/14 01:22:48;;;;;;;10.18;6.07;;;5.00;1.00;;;;;;7371193;19;20015;-72
2024/02/14 01:25:24;;;;;;;8.32;5.53;;;5.00;1.00;;;;;;7373487;19;20018;-71
2024/02/14 01:27:55;;;;;;;8.45;5.35;;;4.90;1.00;;;;;;7374097;19;20025;-71
2024/02/14 01:30:25;;;;;;;9.18;5.72;;;4.90;1.00;;;;;;7372117;19;20090;-71
2024/02/14 01:32:57;;;;;;;7.55;5.43;;;4.90;1.00;;;;;;7372822;19;20010;-71
2024/02/14 01:35:27;;;;;;;8.68;5.80;;;5.00;1.00;;;;;;7372623;19;20010;-71
2024/02/14 01:37:57;;;;;;;10.20;5.55;;;5.00;1.00;;;;;;7373470;19;20006;-70
2024/02/14 01:40:27;;;;;;;9.05;5.53;;;5.00;1.00;;;;;;7372641;19;20926;-70
2024/02/14 01:43:06;;;;;;;8.95;4.78;;;4.90;1.00;;;;;;7371993;19;20021;-71
2024/02/14 01:45:36;;;;;;;7.63;5.35;;;5.00;1.00;;;;;;7373136;19;23749;-72
2024/02/14 01:48:18;;;;;;;10.75;5.47;;;4.90;1.00;;;;;;7374444;19;20067;-71
2024/02/14 01:50:49;;;;;;;10.73;5.45;;;4.90;1.00;;;;;;7370994;19;20040;-70
2024/02/14 01:53:19;;;;;;;8.93;5.20;;;5.00;1.00;;;;;;7371840;19;20467;-70
2024/02/14 01:55:49;;;;;;;7.30;5.22;;;5.00;1.00;;;;;;7373020;19;20013;-70
2024/02/14 01:58:19;;;;;;;13.30;6.03;;;5.00;1.00;;;;;;7373624;19;20350;-70
2024/02/14 02:00:50;;;;;;;6.70;4.70;;;5.00;1.00;;;;;;7372917;19;20070;-71
2024/02/14 02:03:23;;;;;;;10.63;5.30;;;5.00;1.00;;;;;;7374092;19;20019;-71
2024/02/14 02:05:53;;;;;;;8.55;5.28;;;5.10;1.00;;;;;;7372515;19;20020;-71
2024/02/14 02:08:24;;;;;;;10.30;5.60;;;5.20;1.00;;;;;;7373344;19;20094;-71
2024/02/14 02:10:54;;;;;;;7.65;5.57;;;5.10;1.00;;;;;;7370434;19;20086;-71
2024/02/14 02:13:44;;;;;;;7.25;4.97;;;5.10;1.00;;;;;;7372503;19;20041;-70
2024/02/14 02:16:34;;;;;;;10.23;5.55;;;5.10;1.00;;;;;;6857584;19;2004711;-72
2024/02/14 02:19:36;;;;;;;10.50;5.10;;;5.20;1.00;;;;;;6860179;19;2004058;-72
2024/02/14 02:22:28;;;;;;;10.00;5.50;;;5.20;1.00;;;;;;7367735;19;20015;-70
2024/02/14 02:25:23;;;;;;;8.63;5.30;;;5.30;1.00;;;;;;7372699;19;20014;-70
2024/02/14 02:28:05;;;;;;;12.85;5.50;;;5.30;1.00;;;;;;6963148;19;2003847;-70
2024/02/14 02:30:40;;;;;;;10.30;5.13;;;5.40;1.00;;;;;;7370203;19;20023;-71
2024/02/14 02:33:10;;;;;;;9.27;5.72;;;5.30;1.00;;;;;;7370840;19;20033;-69
2024/02/14 02:35:42;;;;;;;9.30;5.45;;;5.50;1.00;;;;;;7370292;19;20062;-70
2024/02/14 02:38:32;;;;;;;11.80;5.40;;;5.50;1.00;;;;;;6860455;19;2004620;-70
2024/02/14 02:41:24;;;;;;;11.18;5.07;;;5.60;1.00;;;;;;7370252;19;20010;-70
2024/02/14 02:44:13;;;;;;;8.23;5.22;;;5.70;1.00;;;;;;7370618;19;20070;-72
2024/02/14 02:47:06;;;;;;;8.77;5.18;;;5.60;1.00;;;;;;6859059;19;2003995;-71
2024/02/14 02:49:57;;;;;;;12.15;5.45;;;5.60;1.00;;;;;;7268549;19;2004341;-70
2024/02/14 02:52:47;;;;;;;8.13;5.20;;;5.70;1.00;;;;;;7371257;19;20009;-70
2024/02/14 02:55:37;;;;;;;8.20;5.57;;;5.70;1.00;;;;;;6962931;19;2004055;-70
2024/02/14 02:58:11;;;;;;;9.13;5.45;;;5.80;1.00;;;;;;7372448;19;20479;-70
2024/02/14 03:00:42;;;;;;;9.32;4.85;;;5.80;1.00;;;;;;7370500;19;20709;-70
2024/02/14 03:03:27;;;;;;;11.27;4.95;;;5.70;1.00;;;;;;7368704;19;20074;-70
2024/02/14 03:06:09;;;;;;;10.30;4.90;;;5.70;1.00;;;;;;7371051;19;20379;-71
2024/02/14 03:08:59;;;;;;;9.07;4.30;;;5.70;1.00;;;;;;6859648;19;2003880;-71
2024/02/14 03:11:50;;;;;;;8.98;5.15;;;5.60;1.00;;;;;;7367515;19;20011;-71
2024/02/14 03:14:43;;;;;;;7.43;4.65;;;5.50;1.00;;;;;;6962285;19;2004977;-70
2024/02/14 03:17:34;;;;;;;7.28;4.50;;;5.50;1.00;;;;;;6861058;19;2004809;-71
2024/02/14 03:20:07;;;;;;;10.13;5.07;;;5.20;1.00;;;;;;7371037;19;20049;-71
2024/02/14 03:22:41;;;;;;;8.68;5.18;;;5.10;1.00;;;;;;7369988;19;20011;-72
2024/02/14 03:25:12;;;;;;;9.07;5.78;;;5.10;1.00;;;;;;7369488;19;20372;-72
2024/02/14 03:27:52;;;;;;;10.18;6.25;;;5.10;1.00;;;;;;7371609;19;20031;-72
2024/02/14 03:30:27;;;;;;;8.45;5.78;;;5.00;1.00;;;;;;7369171;19;20328;-71
2024/02/14 03:32:57;;;;;;;10.82;6.28;;;5.00;1.00;;;;;;7371111;19;20011;-71
2024/02/14 03:35:27;;;;;;;12.27;6.82;;;4.90;1.00;;;;;;7365919;19;20074;-71
2024/02/14 03:37:57;;;;;;;13.13;6.97;;;4.90;1.00;;;;;;7370223;19;20011;-71
2024/02/14 03:40:30;;;;;;;9.68;6.28;;;4.90;1.00;;;;;;7368399;19;20006;-71
2024/02/14 03:43:00;;;;;;;9.57;6.28;;;5.00;1.00;;;;;;7369502;19;20007;-71
2024/02/14 03:45:32;;;;;;;12.02;5.97;;;5.00;1.00;;;;;;7368175;19;20022;-72
2024/02/14 03:48:02;;;;;;;12.05;6.80;;;5.10;1.00;;;;;;7370039;19;20006;-71
2024/02/14 03:50:33;;;;;;;11.23;6.38;;;5.20;1.00;;;;;;7370910;19;20036;-71
2024/02/14 03:53:03;;;;;;;9.13;5.90;;;5.20;1.00;;;;;;7369529;19;20020;-71
2024/02/14 03:55:33;;;;;;;8.85;5.53;;;5.20;1.00;;;;;;7368770;19;20010;-72
2024/02/14 03:58:04;;;;;;;10.80;5.75;;;5.20;1.00;;;;;;7369395;19;20101;-71
2024/02/14 04:00:37;;;;;;;9.10;5.88;;;5.30;1.00;;;;;;7366461;19;20014;-71
2024/02/14 04:03:07;;;;;;;8.18;5.68;;;5.30;1.00;;;;;;7367465;19;20143;-71
2024/02/14 04:05:37;;;;;;;9.85;6.25;;;5.40;1.00;;;;;;7368221;19;20050;-72
2024/02/14 04:08:09;;;;;;;9.05;6.05;;;5.50;1.00;;;;;;7370361;19;20023;-69
2024/02/14 04:10:40;;;;;;;10.43;6.00;;;5.50;1.00;;;;;;7368524;19;20081;-71
2024/02/14 04:13:10;;;;;;;8.43;5.30;;;5.60;1.00;;;;;;7368990;19;20016;-71
2024/02/14 04:15:43;;;;;;;12.02;5.25;;;5.70;1.00;;;;;;7364753;19;20017;-71
2024/02/14 04:18:15;;;;;;;9.38;5.35;;;5.70;1.00;;;;;;7367822;19;20060;-71
2024/02/14 04:20:46;;;;;;;9.82;5.32;;;5.70;1.00;;;;;;7369999;19;20011;-71
2024/02/14 04:23:16;;;;;;;11.40;6.15;;;5.70;1.00;;;;;;7368604;19;20021;-70
2024/02/14 04:25:48;;;;;;;13.63;6.13;;;5.70;1.00;;;;;;7369515;19;20010;-72
2024/02/14 04:28:18;;;;;;;9.43;5.60;;;5.80;1.00;;;;;;7366726;19;20006;-71
2024/02/14 04:30:51;;;;;;;12.45;5.65;;;5.80;1.00;;;;;;7365889;19;20013;-71
2024/02/14 04:33:27;;;;;;;9.45;5.15;;;5.80;1.00;;;;;;7362119;19;20903;-71
2024/02/14 04:35:57;;;;;;;7.75;4.60;;;5.80;1.00;;;;;;7368664;19;20047;-72
2024/02/14 04:38:28;;;;;;;8.55;4.68;;;5.80;1.00;;;;;;7367054;19;20471;-70
2024/02/14 04:40:59;;;;;;;12.75;5.10;;;5.70;1.00;;;;;;7367011;19;20042;-71
2024/02/14 04:43:29;;;;;;;10.27;4.78;;;5.80;1.00;;;;;;7366549;19;20006;-73
2024/02/14 04:46:01;;;;;;;7.30;4.43;;;5.80;1.00;;;;;;7365723;19;20539;-70
2024/02/14 04:48:31;;;;;;;6.38;4.20;;;5.80;1.00;;;;;;7368569;19;20017;-72
2024/02/14 04:51:02;;;;;;;10.10;4.30;;;5.90;1.00;;;;;;7367715;19;20022;-71
2024/02/14 04:53:35;;;;;;;10.43;4.55;;;5.90;1.00;;;;;;7365743;19;20010;-71
2024/02/14 04:56:06;;;;;;;6.30;3.38;;;6.00;1.00;;;;;;7366188;19;20795;-71
2024/02/14 04:58:36;;;;;;;6.95;3.67;;;6.00;1.00;;;;;;7365543;19;20430;-71
2024/02/14 05:01:10;;;;;;;8.30;3.15;;;6.20;1.00;;;;;;7362638;19;20010;-71
2024/02/14 05:03:40;;;;;;;4.60;2.83;;;6.30;1.00;;;;;;7364723;19;20054;-70
2024/02/14 05:06:10;;;;;;;10.00;3.22;;;6.30;1.00;;;;;;7367991;19;20010;-72
2024/02/14 05:08:40;;;;;;;5.00;2.33;;;6.40;1.00;;;;;;7366545;19;20128;-71
2024/02/14 05:11:10;;;;;;;3.42;2.20;;;6.50;1.00;;;;;;7367103;19;20090;-71
2024/02/14 05:13:41;;;;;;;8.07;2.80;;;6.50;1.00;;;;;;7366263;19;20018;-71
2024/02/14 05:16:14;;;;;;;6.03;2.70;;;6.50;1.00;;;;;;7367363;19;20026;-70
2024/02/14 05:18:44;;;;;;;6.13;2.50;;;6.60;1.00;;;;;;7367530;19;20021;-70
2024/02/14 05:21:14;;;;;;;4.32;2.75;;;6.60;1.00;;;;;;7367387;19;20422;-70
2024/02/14 05:23:44;;;;;;;7.00;2.88;;;6.60;1.00;;;;;;7367214;19;20007;-69
2024/02/14 05:26:15;;;;;;;6.57;3.70;;;6.60;1.00;;;;;;7367526;19;20070;-72
2024/02/14 05:28:46;;;;;;;7.57;4.13;;;6.60;1.00;;;;;;7366530;19;20023;-72
2024/02/14 05:31:19;;;;;;;6.70;3.60;;;6.70;1.00;;;;;;7364865;19;20011;-71
2024/02/14 05:33:49;;;;;;;10.43;3.83;;;6.70;1.00;;;;;;7365730;19;20495;-70
2024/02/14 05:36:19;;;;;;;8.68;3.80;;;6.60;1.00;;;;;;7364227;19;20010;-71
2024/02/14 05:38:49;;;;;;;5.25;3.75;;;6.60;1.00;;;;;;7364662;19;20006;-71
2024/02/14 05:41:19;;;;;;;7.88;4.07;;;6.50;1.00;;;;;;7365826;19;20092;-71
2024/02/14 05:43:49;;;;;;;5.82;4.10;;;6.50;1.00;;;;;;7365045;19;20404;-70
2024/02/14 05:46:22;;;;;;;9.82;4.15;;;6.50;1.00;;;;;;7366811;19;20007;-71
2024/02/14 05:48:52;;;;;;;12.68;5.03;;;6.40;1.00;;;;;;7364260;19;20081;-72
2024/02/14 05:51:23;;;;;;;8.18;4.63;;;6.50;1.00;;;;;;7366267;19;20007;-72
2024/02/14 05:53:53;;;;;;;11.20;5.43;;;6.50;1.00;;;;;;7364707;19;20026;-72
2024/02/14 05:56:23;;;;;;;11.65;6.13;;;6.50;1.00;;;;;;7366229;19;20026;-71
2024/02/14 05:58:53;;;;;;;10.35;6.05;;;6.40;1.00;;;;;;7371464;19;20032;-71
2024/02/14 06:01:28;;;;;;;9.68;6.00;;;6.40;1.00;;;;;;7374461;19;20014;-71
2024/02/14 06:03:58;;;;;;;;;;;6.40;1.00;;;;;;7374274;19;20018;-71
2024/02/14 06:06:28;;;;;;;12.90;5.72;;;6.30;1.00;;;;;;7372546;19;20379;-71
2024/02/14 06:08:59;;;;;;;12.52;6.18;;;6.30;1.00;;;;;;7374343;19;20348;-71
2024/02/14 06:11:29;;;;;;;9.35;5.47;;;6.30;1.00;;;;;;7374371;19;20097;-71
2024/02/14 06:13:59;;;;;;;10.15;5.90;;;6.30;1.00;;;;;;7373144;19;20010;-71
2024/02/14 06:16:32;;;;;;;11.85;5.95;;;6.20;1.00;;;;;;7373811;19;20042;-70
2024/02/14 06:19:04;;;;;;;13.38;6.25;;;6.20;1.00;;;;;;7373303;19;20357;-71
2024/02/14 06:21:35;;;;;;;9.38;6.55;;;6.10;1.00;;;;;;7373799;19;20101;-70
2024/02/14 06:24:06;;;;;;;11.93;6.53;;;6.10;1.00;;;;;;7373485;19;20364;-70
2024/02/14 06:26:36;;;;;;;12.35;6.70;;;6.00;1.00;;;;;;7370650;19;20023;-72
2024/02/14 06:29:06;;;;;;;11.60;6.80;;;5.90;1.00;;;;;;7371397;19;20017;-71
2024/02/14 06:31:39;;;;;;;11.60;6.03;;;5.90;1.00;;;;;;7371697;19;20513;-70
2024/02/14 06:34:10;;;;;;;14.57;6.03;;;5.90;1.00;;;;;;7372199;19;20018;-71
2024/02/14 06:36:40;;;;;;;11.25;6.28;;;6.00;1.00;;;;;;7371423;19;20492;-70
2024/02/14 06:39:10;;;;;;;12.23;6.38;;;6.00;1.00;;;;;;7385332;19;20499;-71
2024/02/14 06:41:41;;;;;;;13.25;6.90;;;6.10;1.00;;;;;;7386631;19;20018;-71
2024/02/14 06:44:11;;;;;;;12.07;7.72;;;6.00;1.00;;;;;;7389656;19;20018;-71
2024/02/14 06:46:43;;;;;;;9.48;6.25;;;6.10;1.00;;;;;;7384497;19;20022;-71
2024/02/14 06:49:13;;;;;;;12.82;6.85;;;6.10;1.00;;;;;;7373670;19;20015;-71
2024/02/14 06:51:45;;;;;;;13.27;7.18;;;6.10;1.00;;;;;;7373956;19;20021;-72
2024/02/14 06:54:17;;;;;;;11.98;7.00;;;6.10;1.00;;;;;;7377032;19;20085;-71
2024/02/14 06:56:47;;;;;;;10.95;6.35;;;6.10;1.00;;;;;;7371817;19;20014;-71
2024/02/14 06:59:17;;;;;;;10.40;6.13;;;6.20;1.00;;;;;;7370570;19;20017;-72
2024/02/14 07:01:51;;;;;;;14.13;6.35;;;6.20;1.00;;;;;;7372556;19;20018;-71
2024/02/14 07:04:25;;;;;;;17.45;6.40;;;6.30;1.00;;;;;;7370540;19;20021;-71
2024/02/14 07:06:56;;;;;;;10.98;5.60;;;6.30;1.00;;;;;;7373694;19;20006;-70
2024/02/14 07:09:28;;;;;;;12.38;5.70;;;6.30;1.00;;;;;;7370990;19;20039;-70
2024/02/14 07:11:58;;;;;;;14.07;6.10;;;6.40;1.00;;;;;;7371776;19;20010;-70
2024/02/14 07:14:28;;;;;;;12.25;6.05;;;6.40;1.00;;;;;;7371887;19;20014;-70
2024/02/14 07:17:01;;;;;;;14.35;5.75;;;6.40;1.00;;;;;;7371016;19;20047;-72
2024/02/14 07:19:31;;;;;;;13.20;5.40;;;6.40;1.00;;;;;;7370938;19;20020;-70
2024/02/14 07:22:01;;;;;;;11.55;5.60;;;6.50;1.00;;;;;;7370197;19;20520;-70
2024/02/14 07:24:31;;;;;;;8.82;5.07;;;6.50;1.00;;;;;;7370259;19;20010;-70
2024/02/14 07:27:02;;;;;;;9.13;5.20;;;6.50;1.00;;;;;;7370174;19;20019;-70
2024/02/14 07:29:32;;;;;;;8.35;5.03;;;6.50;1.00;;;;;;7371066;19;20015;-70
2024/02/14 07:32:06;;;;;;;9.40;5.00;;;6.50;1.00;;;;;;7371348;19;20022;-71
2024/02/14 07:34:36;;;;;;;10.73;5.38;;;6.60;1.00;;;;;;7371155;19;20018;-71
2024/02/14 07:37:07;;;;;;;9.32;5.32;;;6.70;1.00;;;;;;7371455;19;20356;-73
2024/02/14 07:39:37;;;;;;;11.68;5.30;;;6.80;1.00;;;;;;7369009;19;20006;-70
2024/02/14 07:42:08;;;;;;;11.10;5.57;;;6.90;1.00;;;;;;7368809;19;20506;-70
2024/02/14 07:44:38;;;;;;;8.65;4.75;;;7.00;1.00;;;;;;7369358;19;20502;-70
2024/02/14 07:47:10;;;;;;;8.40;4.53;;;7.10;1.00;;;;;;7369165;19;20031;-69
2024/02/14 07:49:42;;;;;;;7.22;3.60;;;7.30;1.00;;;;;;7368292;19;20011;-70
2024/02/14 07:52:12;;;;;;;5.78;3.38;;;7.40;1.00;;;;;;7368354;19;20010;-70
2024/02/14 07:54:42;;;;;;;6.95;3.35;;;7.60;1.00;;;;;;7368781;19;20770;-71
2024/02/14 07:57:12;;;;;;;9.05;3.42;;;7.70;1.00;;;;;;7368190;19;20368;-71
2024/02/14 07:59:42;;;;;;;7.72;2.90;;;7.80;1.00;;;;;;7368361;19;20933;-70
2024/02/14 08:02:14;;;;;;;7.05;2.40;;;7.90;1.00;;;;;;7368358;19;20030;-72
2024/02/14 08:04:45;;;;;;;5.10;2.45;;;8.00;1.00;;;;;;7367285;19;20010;-71
2024/02/14 08:07:15;;;;;;;5.38;2.60;;;8.10;1.00;;;;;;7370011;19;20011;-71
2024/02/14 08:09:45;;;;;;;6.40;2.75;;;8.10;1.00;;;;;;7369878;19;20093;-71
2024/02/14 08:12:15;;;;;;;6.45;2.92;;;8.20;1.00;;;;;;7368962;19;20011;-71
2024/02/14 08:14:47;;;;;;;4.53;2.20;;;8.30;1.00;;;;;;7368937;19;20447;-71
2024/02/14 08:17:19;;;;;;;5.95;2.75;;;8.30;1.00;;;;;;7366634;19;20499;-70
2024/02/14 08:19:50;;;;;;;5.22;2.13;;;8.40;1.00;;;;;;7362921;19;20097;-71
2024/02/14 08:22:20;;;;;;;9.63;3.10;;;8.50;1.00;;;;;;7366430;19;20683;-70
2024/02/14 08:24:50;;;;;;;4.60;2.45;;;8.50;1.00;;;;;;7368028;19;20010;-72
2024/02/14 08:27:21;;;;;;;11.05;3.45;;;8.40;1.00;;;;;;7367853;19;20526;-70
2024/02/14 08:29:52;;;;;;;11.40;3.22;;;8.50;1.00;;;;;;7367476;19;20014;-70
2024/02/14 08:32:24;;;;;;;10.30;3.70;;;8.50;1.00;;;;;;7366625;19;20015;-70
2024/02/14 08:34:56;;;;;;;6.13;3.80;;;8.60;1.00;;;;;;7367452;19;20014;-71
2024/02/14 08:37:26;;;;;;;7.95;3.78;;;8.60;1.00;;;;;;7367351;19;20356;-71
2024/02/14 08:39:56;;;;;;;8.23;4.90;;;8.70;1.00;;;;;;7366720;19;20017;-71
2024/02/14 08:42:26;;;;;;;6.40;3.22;;;8.70;1.00;;;;;;7366137;19;20018;-71
2024/02/14 08:44:56;;;;;;;14.50;3.63;;;8.80;1.00;;;;;;7366691;19;20034;-70
2024/02/14 08:47:29;;;;;;;9.90;3.45;;;8.80;1.00;;;;;;7367673;19;20007;-70
2024/02/14 08:49:59;;;;;;;9.77;3.63;;;8.90;1.00;;;;;;7366408;19;20086;-70
2024/02/14 08:52:29;;;;;;;12.85;3.75;;;9.00;1.00;;;;;;7365264;19;20010;-70
2024/02/14 08:54:59;;;;;;;12.60;4.20;;;9.10;1.00;;;;;;7367468;19;20006;-70
2024/02/14 08:57:31;;;;;;;14.63;6.03;;;9.10;1.00;;;;;;7366450;19;20006;-70
2024/02/14 09:00:02;;;;;;;16.60;8.15;;;9.20;1.00;;;;;;7366718;19;20014;-71
2024/02/14 09:02:35;;;;;;;25.73;11.25;;;9.30;1.00;;;;;;7366052;19;20360;-71
2024/02/14 09:05:06;;;;;;;31.00;14.13;;;9.50;1.00;;;;;;7367772;19;20670;-71
2024/02/14 09:07:36;;;;;;;43.50;15.88;;;9.40;1.00;;;;;;7365123;19;20320;-71
2024/02/14 09:10:07;;;;;;;29.50;12.82;;;9.50;1.00;;;;;;7367143;19;20014;-71
2024/02/14 09:12:37;;;;;;;28.05;10.10;;;9.60;1.00;;;;;;7363933;19;20333;-71
2024/02/14 09:15:08;;;;;;;12.32;5.20;;;9.70;1.00;;;;;;7364234;19;20095;-71
2024/02/14 09:17:41;;;;;;;6.88;3.00;;;9.70;1.00;;;;;;7364769;19;20601;-71
2024/02/14 09:20:13;;;;;;;4.65;2.65;;;9.90;1.00;;;;;;7365767;19;20014;-69
2024/02/14 09:22:44;;;;;;;4.45;2.20;;;10.00;1.00;;;;;;7365686;19;20047;-70
2024/02/14 09:25:14;;;;;;;5.88;1.88;;;10.10;1.00;;;;;;7364142;19;20094;-72
2024/02/14 09:27:47;;;;;;;5.70;1.63;;;10.10;1.00;;;;;;7364543;19;20145;-70
2024/02/14 09:30:17;;;;;;;4.22;1.70;;;10.30;1.00;;;;;;7364166;19;20017;-71
2024/02/14 09:33:05;;;;;;;2.90;1.60;;;10.40;1.00;;;;;;7364942;19;20494;-71
2024/02/14 09:35:37;;;;;;;4.93;3.30;;;10.50;1.00;;;;;;7368726;19;20647;-71
2024/02/14 09:38:07;;;;;;;4.32;2.30;;;10.60;1.00;;;;;;7371189;19;20031;-71
2024/02/14 09:40:38;;;;;;;3.28;1.30;;;10.70;1.00;;;;;;7371536;19;20425;-71
2024/02/14 09:43:14;;;;;;;4.05;1.60;;;10.80;1.00;;;;;;7371345;19;20014;-73
2024/02/14 09:45:46;;;;;;;4.03;1.55;;;10.80;1.00;;;;;;7371207;19;20644;-72
2024/02/14 09:48:21;;;;;;;5.10;1.88;;;10.80;1.00;;;;;;7371422;19;20014;-72
2024/02/14 09:50:51;;;;;;;3.85;1.70;;;10.90;1.00;;;;;;7373943;19;20500;-71
2024/02/14 09:53:22;;;;;;;3.88;1.58;;;10.90;1.00;;;;;;7371736;19;20399;-71
2024/02/14 09:55:53;;;;;;;4.57;1.80;;;10.80;1.00;;;;;;7370166;19;20017;-71
2024/02/14 09:58:23;;;;;;;2.83;1.52;;;10.90;1.00;;;;;;7369467;19;20021;-71
2024/02/14 10:01:02;;;;;;;8.23;1.90;;;11.00;1.00;;;;;;7372442;19;20089;-71
2024/02/14 10:03:36;;;;;;;4.57;1.48;;;11.10;1.00;;;;;;7368830;19;20010;-72
2024/02/14 10:06:06;;;;;;;2.40;1.63;;;11.20;1.00;;;;;;7371935;19;20015;-70
2024/02/14 10:08:39;;;;;;;4.15;1.17;;;11.30;1.00;;;;;;7371138;19;20467;-70
2024/02/14 10:11:27;;;;;;;2.20;1.20;;;11.30;1.00;;;;;;7373360;19;20378;-72
2024/02/14 10:14:01;;;;;;;5.28;1.30;;;11.40;1.00;;;;;;7371541;19;20036;-71
2024/02/14 10:16:32;;;;;;;2.58;1.42;;;11.50;1.00;;;;;;7369136;19;20022;-71
2024/02/14 10:19:07;;;;;;;6.85;1.42;;;11.50;1.00;;;;;;7371046;19;20046;-70
2024/02/14 10:21:38;;;;;;;3.92;1.27;;;11.50;1.00;;;;;;7372384;19;20276;-72
2024/02/14 10:24:12;;;;;;;3.80;1.70;;;11.60;1.00;;;;;;7370392;19;20517;-71
2024/02/14 10:26:42;;;;;;;2.22;1.05;;;11.80;1.00;;;;;;7372511;19;20458;-71
2024/02/14 10:29:14;;;;;;;4.07;1.38;;;11.80;1.00;;;;;;7371291;19;20014;-71
2024/02/14 10:31:44;;;;;;;1.80;1.48;;;12.10;1.00;;;;;;7371761;19;20027;-72
2024/02/14 10:34:16;;;;;;;4.15;2.88;;;12.40;1.00;;;;;;7367632;19;20673;-70
2024/02/14 10:36:47;;;;;;;3.38;2.30;;;12.60;1.00;;;;;;7369306;19;20011;-70
2024/02/14 10:39:19;;;;;;;3.17;1.40;;;12.40;1.00;;;;;;7369778;19;20021;-71
2024/02/14 10:41:50;;;;;;;2.17;1.17;;;12.20;1.00;;;;;;7371732;19;20074;-71
2024/02/14 10:44:20;;;;;;;2.00;1.02;;;12.40;1.00;;;;;;7368618;19;20146;-70
2024/02/14 10:46:54;;;;;;;4.80;1.50;;;12.40;1.00;;;;;;7369925;19;20006;-71
2024/02/14 10:49:28;;;;;;;;;;;12.40;1.00;;;;;;7370843;19;20017;-71
2024/02/14 10:52:04;;;;;;;1.73;1.23;;;12.50;1.00;;;;;;7371766;19;19936;-71
2024/02/14 10:54:37;;;;;;;2.95;1.55;;;12.50;1.00;;;;;;7363634;19;20014;-72
2024/02/14 10:57:11;;;;;;;1.98;1.20;;;12.50;1.00;;;;;;7369172;19;20010;-72
2024/02/14 10:59:44;;;;;;;;;;;12.60;1.00;;;;;;7369258;19;20143;-70
2024/02/14 11:02:15;;;;;;;1.65;1.10;;;12.70;1.00;;;;;;7369833;19;19918;-71
2024/02/14 11:04:52;;;;;;;4.55;1.60;;;12.70;1.00;;;;;;7370095;19;20476;-71
2024/02/14 11:07:23;;;;;;;2.90;1.48;;;12.70;1.00;;;;;;7369161;19;20017;-71
2024/02/14 11:10:04;;;;;;;2.15;1.80;;;12.60;1.00;;;;;;7370247;19;20029;-71
2024/02/14 11:12:36;;;;;;;10.00;1.30;;;12.50;1.00;;;;;;7370529;19;20691;-71
2024/02/14 11:15:13;;;;;;;6.22;2.05;;;12.40;1.00;;;;;;7371242;19;20034;-71
2024/02/14 11:17:43;;;;;;;1.80;1.20;;;12.30;1.00;;;;;;7364950;19;20007;-71
2024/02/14 11:20:33;;;;;;;3.33;1.35;;;12.30;1.00;;;;;;7368819;19;20027;-70
2024/02/14 11:23:05;;;;;;;3.78;1.40;;;12.20;1.00;;;;;;7368424;19;20014;-72
2024/02/14 11:25:37;;;;;;;2.85;1.50;;;12.20;1.00;;;;;;7370150;19;20014;-71
2024/02/14 11:28:16;;;;;;;2.13;1.30;;;12.10;1.00;;;;;;7367028;19;20079;-71
2024/02/14 11:30:47;;;;;;;3.33;1.83;;;12.10;1.00;;;;;;7367649;19;20018;-71
2024/02/14 11:33:20;;;;;;;4.25;1.48;;;12.10;1.00;;;;;;7367559;19;20011;-71
2024/02/14 11:35:55;;;;;;;3.72;1.48;;;12.10;1.00;;;;;;7368933;19;20017;-71
2024/02/14 11:38:27;;;;;;;2.88;1.48;;;12.00;1.00;;;;;;7368054;19;20010;-71
2024/02/14 11:40:58;;;;;;;2.70;1.20;;;11.90;1.00;;;;;;7369445;19;20039;-71
2024/02/14 11:43:27;;;;;;;2.47;1.50;;;11.90;1.00;;;;;;7367640;19;20086;-71
2024/02/14 11:45:58;;;;;;;2.95;1.45;;;11.90;1.00;;;;;;7367031;19;20464;-70
2024/02/14 11:48:28;;;;;;;5.75;2.00;;;11.80;1.00;;;;;;7367562;19;20059;-72
2024/02/14 11:51:01;;;;;;;3.05;1.50;;;11.80;1.00;;;;;;7369222;19;20018;-73
2024/02/14 11:53:32;;;;;;;4.35;1.20;;;11.90;1.00;;;;;;7369690;19;20018;-71
2024/02/14 11:56:05;;;;;;;3.60;1.60;;;11.80;1.00;;;;;;7365921;19;20006;-70
2024/02/14 11:58:35;;;;;;;2.85;1.60;;;11.80;1.00;;;;;;7370280;19;20038;-71
2024/02/14 12:01:07;;;;;;;2.42;1.30;;;11.90;1.00;;;;;;7368179;19;20505;-71
2024/02/14 12:03:38;;;;;;;4.60;2.05;;;12.00;1.00;;;;;;7368295;19;20124;-71
2024/02/14 12:06:11;;;;;;;3.85;1.85;;;12.10;1.00;;;;;;7368732;19;20439;-71
2024/02/14 12:08:43;;;;;;;5.68;2.08;;;12.20;1.00;;;;;;7367767;19;20243;-72
2024/02/14 12:11:13;;;;;;;3.47;1.90;;;12.10;1.00;;;;;;7366987;19;20010;-71
2024/02/14 12:13:46;;;;;;;5.30;1.83;;;12.00;1.00;;;;;;7369773;19;20366;-70
2024/02/14 12:16:16;;;;;;;2.67;1.48;;;11.90;1.00;;;;;;7366924;19;20011;-72
2024/02/14 12:18:46;;;;;;;2.47;1.60;;;11.90;1.00;;;;;;7371245;19;20007;-70
2024/02/14 12:21:19;;;;;;;2.63;1.70;;;12.00;1.00;;;;;;7371088;19;20061;-72
2024/02/14 12:23:53;;;;;;;4.05;1.90;;;12.20;1.00;;;;;;7365486;19;20449;-71
2024/02/14 12:26:23;;;;;;;4.22;2.00;;;12.40;1.00;;;;;;7366748;19;20586;-71
2024/02/14 12:28:54;;;;;;;7.47;2.10;;;12.60;1.00;;;;;;7366119;19;20007;-71
2024/02/14 12:31:25;;;;;;;3.15;1.05;;;12.40;1.00;;;;;;7368038;19;20002;-71
2024/02/14 12:33:57;;;;;;;4.85;1.58;;;12.60;1.00;;;;;;7366778;19;20015;-70
2024/02/14 12:36:32;;;;;;;2.80;1.20;;;13.00;1.00;;;;;;7366124;19;20422;-70
2024/02/14 12:39:03;;;;;;;3.60;1.50;;;12.80;1.00;;;;;;7365915;19;20809;-72
2024/02/14 12:41:37;;;;;;;6.90;1.85;;;13.00;1.00;;;;;;7367115;19;20014;-71
2024/02/14 12:44:07;;;;;;;2.65;1.20;;;13.40;1.00;;;;;;7365777;19;20463;-71
2024/02/14 12:46:38;;;;;;;3.60;1.27;;;13.40;1.00;;;;;;7366562;19;20039;-73
2024/02/14 12:49:09;;;;;;;9.63;1.38;;;13.60;1.00;;;;;;7366392;19;20014;-72
2024/02/14 12:51:42;;;;;;;5.05;1.17;;;13.60;1.00;;;;;;7367114;19;20018;-71
2024/02/14 12:54:14;;;;;;;1.13;0.73;;;13.70;1.00;;;;;;7364625;19;20043;-71
2024/02/14 12:56:44;;;;;;;3.05;0.98;;;13.60;1.00;;;;;;7364059;19;20007;-71
2024/02/14 12:59:20;;;;;;;1.02;0.80;;;13.40;1.00;;;;;;7367262;19;20014;-72
2024/02/14 13:01:51;;;;;;;1.65;0.70;;;13.60;1.00;;;;;;7365333;19;20011;-69
2024/02/14 13:04:21;;;;;;;3.60;1.10;;;13.70;1.00;;;;;;7364506;19;20011;-70
2024/02/14 13:06:54;;;;;;;5.32;1.10;;;14.00;1.00;;;;;;7367209;19;20011;-70
2024/02/14 13:09:24;;;;;;;2.95;0.50;;;14.20;1.00;;;;;;7373209;19;20021;-71
2024/02/14 13:11:56;;;;;;;3.35;0.85;;;14.30;1.00;;;;;;7375249;19;20017;-71
2024/02/14 13:14:28;;;;;;;1.05;0.50;;;14.20;1.00;;;;;;7372569;19;20014;-72
2024/02/14 13:16:58;;;;;;;4.00;0.65;;;13.90;1.00;;;;;;7373375;19;20018;-70
2024/02/14 13:19:28;;;;;;;2.25;0.52;;;13.90;1.00;;;;;;7372049;19;20018;-72
2024/02/14 13:22:02;;;;;;;0.80;0.50;;;13.90;1.00;;;;;;7372272;19;20020;-71
2024/02/14 13:24:32;;;;;;;4.60;1.00;;;14.00;1.00;;;;;;7372596;19;20370;-71
2024/02/14 13:27:02;;;;;;;2.55;0.52;;;14.00;1.00;;;;;;7371996;19;20021;-70
2024/02/14 13:29:32;;;;;;;3.25;0.70;;;14.10;1.00;;;;;;7371557;19;20014;-72